createdAt,value
2019-02-04T00:00:38.430Z,1.93
2019-02-04T00:01:20.425Z,1.60
2019-02-04T00:01:56.850Z,2.20
2019-02-04T00:02:33.065Z,1.70
2019-02-04T00:03:09.828Z,2.03
2019-02-04T00:03:46.000Z,1.70
2019-02-04T00:04:22.431Z,2.37
2019-02-04T00:04:58.551Z,1.87
2019-02-04T00:05:34.921Z,1.80
2019-02-04T00:06:11.238Z,2.20
2019-02-04T00:06:47.335Z,1.60
2019-02-04T00:07:23.510Z,1.97
2019-02-04T00:07:59.662Z,1.77
2019-02-04T00:08:35.891Z,1.90
2019-02-04T00:09:12.175Z,1.90
2019-02-04T00:09:48.237Z,1.70
2019-02-04T00:10:24.497Z,2.40
2019-02-04T00:11:00.778Z,1.87
2019-02-04T00:11:37.044Z,1.73
2019-02-04T00:12:13.267Z,1.57
2019-02-04T00:12:49.363Z,1.97
2019-02-04T00:13:25.889Z,2.30
2019-02-04T00:14:02.062Z,1.57
2019-02-04T00:14:38.268Z,1.83
2019-02-04T00:15:14.474Z,2.17
2019-02-04T00:15:50.765Z,2.60
2019-02-04T00:16:26.913Z,2.17
2019-02-04T00:17:03.228Z,1.70
2019-02-04T00:17:39.312Z,2.60
2019-02-04T00:18:15.468Z,2.17
2019-02-04T00:18:51.800Z,1.80
2019-02-04T00:19:28.050Z,1.60
2019-02-04T00:20:04.578Z,1.50
2019-02-04T00:20:41.031Z,1.87
2019-02-04T00:21:17.137Z,1.67
2019-02-04T00:21:53.243Z,1.73
2019-02-04T00:22:29.321Z,2.23
2019-02-04T00:23:05.456Z,2.30
2019-02-04T00:23:41.902Z,2.00
2019-02-04T00:24:18.034Z,2.00
2019-02-04T00:24:54.518Z,1.83
2019-02-04T00:25:30.829Z,1.80
2019-02-04T00:26:07.185Z,1.80
2019-02-04T00:26:51.430Z,2.00
2019-02-04T00:27:21.458Z,1.83
2019-02-04T00:27:57.610Z,1.20
2019-02-04T00:28:33.721Z,1.90
2019-02-04T00:29:09.787Z,1.80
2019-02-04T00:29:45.910Z,2.30
2019-02-04T00:30:22.255Z,2.00
2019-02-04T00:30:58.492Z,1.77
2019-02-04T00:31:34.632Z,1.70
2019-02-04T00:32:10.753Z,1.00
2019-02-04T00:32:46.845Z,1.40
2019-02-04T00:33:23.051Z,1.37
2019-02-04T00:33:59.109Z,1.90
2019-02-04T00:34:35.381Z,2.23
2019-02-04T00:35:12.154Z,1.73
2019-02-04T00:35:48.432Z,1.70
2019-02-04T00:36:24.518Z,1.97
2019-02-04T00:37:00.826Z,2.13
2019-02-04T00:37:37.086Z,1.27
2019-02-04T00:38:14.067Z,1.60
2019-02-04T00:38:50.112Z,1.67
2019-02-04T00:39:26.418Z,1.27
2019-02-04T00:40:02.714Z,1.60
2019-02-04T00:40:38.802Z,1.40
2019-02-04T00:41:15.022Z,1.47
2019-02-04T00:41:51.237Z,1.87
2019-02-04T00:42:27.198Z,1.30
2019-02-04T00:43:03.531Z,1.17
2019-02-04T00:43:39.623Z,1.40
2019-02-04T00:44:15.803Z,1.50
2019-02-04T00:44:51.999Z,1.87
2019-02-04T00:45:28.547Z,1.67
2019-02-04T00:46:05.078Z,1.80
2019-02-04T00:46:51.773Z,1.47
2019-02-04T00:47:19.513Z,1.40
2019-02-04T00:47:55.862Z,1.40
2019-02-04T00:48:32.085Z,2.07
2019-02-04T00:49:08.271Z,1.50
2019-02-04T00:49:44.327Z,2.07
2019-02-04T00:50:20.606Z,1.80
2019-02-04T00:50:56.837Z,1.70
2019-02-04T00:51:33.178Z,2.50
2019-02-04T00:52:09.360Z,1.83
2019-02-04T00:52:45.683Z,1.53
2019-02-04T00:53:21.923Z,1.80
2019-02-04T00:53:58.030Z,1.70
2019-02-04T00:54:34.191Z,1.57
2019-02-04T00:55:10.747Z,2.10
2019-02-04T00:55:47.194Z,1.80
2019-02-04T00:56:23.502Z,1.30
2019-02-04T00:57:00.012Z,1.63
2019-02-04T00:57:36.294Z,1.90
2019-02-04T00:58:12.593Z,2.30
2019-02-04T00:58:48.765Z,1.50
2019-02-04T00:59:25.006Z,1.43
2019-02-04T01:00:01.269Z,1.43
2019-02-04T01:00:37.368Z,2.57
2019-02-04T01:01:13.513Z,2.10
2019-02-04T01:01:49.645Z,2.10
2019-02-04T01:02:25.775Z,1.73
2019-02-04T01:03:02.066Z,2.20
2019-02-04T01:03:38.435Z,2.60
2019-02-04T01:04:14.794Z,1.60
2019-02-04T01:04:51.045Z,2.93
2019-02-04T01:05:27.238Z,3.00
2019-02-04T01:06:03.415Z,2.60
2019-02-04T01:06:39.828Z,2.30
2019-02-04T01:07:16.209Z,2.70
2019-02-04T01:07:52.421Z,2.40
2019-02-04T01:08:28.924Z,2.80
2019-02-04T01:09:06.346Z,2.40
2019-02-04T01:09:42.440Z,2.50
2019-02-04T01:10:20.602Z,2.67
2019-02-04T01:10:56.828Z,2.07
2019-02-04T01:11:33.107Z,2.20
2019-02-04T01:12:09.372Z,2.13
2019-02-04T01:12:45.523Z,2.20
2019-02-04T01:13:21.662Z,2.00
2019-02-04T01:13:57.780Z,1.80
2019-02-04T01:14:34.078Z,1.80
2019-02-04T01:15:10.547Z,1.80
2019-02-04T01:15:46.902Z,1.30
2019-02-04T01:16:22.984Z,1.93
2019-02-04T01:17:03.567Z,1.83
2019-02-04T01:17:37.158Z,2.00
2019-02-04T01:18:13.414Z,2.23
2019-02-04T01:18:49.805Z,1.23
2019-02-04T01:19:26.115Z,2.30
2019-02-04T01:20:02.265Z,1.70
2019-02-04T01:20:38.506Z,1.40
2019-02-04T01:21:14.549Z,1.97
2019-02-04T01:21:50.758Z,1.40
2019-02-04T01:22:26.927Z,1.67
2019-02-04T01:23:03.135Z,1.50
2019-02-04T01:23:39.369Z,1.53
2019-02-04T01:24:15.510Z,1.60
2019-02-04T01:24:51.732Z,1.83
2019-02-04T01:25:27.841Z,1.70
2019-02-04T01:26:03.886Z,2.10
2019-02-04T01:26:40.219Z,1.53
2019-02-04T01:27:16.463Z,1.13
2019-02-04T01:27:54.334Z,1.13
2019-02-04T01:28:30.504Z,1.73
2019-02-04T01:29:07.093Z,1.33
2019-02-04T01:29:43.429Z,1.63
2019-02-04T01:30:20.236Z,2.03
2019-02-04T01:30:56.536Z,1.57
2019-02-04T01:31:32.830Z,1.63
2019-02-04T01:32:08.955Z,1.23
2019-02-04T01:32:45.024Z,1.60
2019-02-04T01:33:21.291Z,1.60
2019-02-04T01:33:57.412Z,1.60
2019-02-04T01:34:33.504Z,1.83
2019-02-04T01:35:09.885Z,1.80
2019-02-04T01:35:46.060Z,1.63
2019-02-04T01:36:22.271Z,1.50
2019-02-04T01:36:58.759Z,2.23
2019-02-04T01:37:35.013Z,1.77
2019-02-04T01:38:11.600Z,2.30
2019-02-04T01:38:47.934Z,2.20
2019-02-04T01:39:24.012Z,2.67
2019-02-04T01:40:00.220Z,2.77
2019-02-04T01:40:36.456Z,2.00
2019-02-04T01:41:13.294Z,2.20
2019-02-04T01:41:49.514Z,2.30
2019-02-04T01:42:25.701Z,1.70
2019-02-04T01:43:02.009Z,1.67
2019-02-04T01:43:38.112Z,2.00
2019-02-04T01:44:14.159Z,1.50
2019-02-04T01:44:50.308Z,1.63
2019-02-04T01:45:26.921Z,1.67
2019-02-04T01:46:03.038Z,1.60
2019-02-04T01:46:39.177Z,1.60
2019-02-04T01:47:15.505Z,1.27
2019-02-04T01:47:51.681Z,1.23
2019-02-04T01:48:28.163Z,1.60
2019-02-04T01:49:04.378Z,1.43
2019-02-04T01:49:40.475Z,1.53
2019-02-04T01:50:18.537Z,1.60
2019-02-04T01:50:54.753Z,1.40
2019-02-04T01:51:30.879Z,1.47
2019-02-04T01:52:07.092Z,1.23
2019-02-04T01:52:43.270Z,1.60
2019-02-04T01:53:19.616Z,1.77
2019-02-04T01:53:55.999Z,1.00
2019-02-04T01:54:32.081Z,1.07
2019-02-04T01:55:09.347Z,1.70
2019-02-04T01:55:45.458Z,1.77
2019-02-04T01:56:21.612Z,1.50
2019-02-04T01:56:57.821Z,1.43
2019-02-04T01:57:33.954Z,1.33
2019-02-04T01:58:10.255Z,1.30
2019-02-04T01:58:46.676Z,1.10
2019-02-04T01:59:22.825Z,1.70
2019-02-04T01:59:59.086Z,1.27
2019-02-04T02:00:36.936Z,1.07
2019-02-04T02:01:13.198Z,1.47
2019-02-04T02:01:49.353Z,1.70
2019-02-04T02:02:25.508Z,1.57
2019-02-04T02:03:01.665Z,1.87
2019-02-04T02:03:37.798Z,1.27
2019-02-04T02:04:13.909Z,1.13
2019-02-04T02:04:50.174Z,1.60
2019-02-04T02:05:26.291Z,1.67
2019-02-04T02:06:02.386Z,0.97
2019-02-04T02:06:38.504Z,1.50
2019-02-04T02:07:14.867Z,2.20
2019-02-04T02:07:50.869Z,2.03
2019-02-04T02:08:26.956Z,1.73
2019-02-04T02:09:05.216Z,1.70
2019-02-04T02:09:41.333Z,1.83
2019-02-04T02:10:18.960Z,1.20
2019-02-04T02:10:55.087Z,0.80
2019-02-04T02:11:31.302Z,1.33
2019-02-04T02:12:07.568Z,1.67
2019-02-04T02:12:43.783Z,1.33
2019-02-04T02:13:20.027Z,1.30
2019-02-04T02:13:56.371Z,0.87
2019-02-04T02:14:32.680Z,1.50
2019-02-04T02:15:08.798Z,1.40
2019-02-04T02:15:45.234Z,1.27
2019-02-04T02:16:21.479Z,1.37
2019-02-04T02:16:57.694Z,1.67
2019-02-04T02:17:33.921Z,1.80
2019-02-04T02:18:10.355Z,1.57
2019-02-04T02:18:46.482Z,1.17
2019-02-04T02:19:22.790Z,1.00
2019-02-04T02:19:58.841Z,1.53
2019-02-04T02:20:35.377Z,1.40
2019-02-04T02:21:11.434Z,1.30
2019-02-04T02:21:47.599Z,1.40
2019-02-04T02:22:23.943Z,1.50
2019-02-04T02:23:00.177Z,1.10
2019-02-04T02:23:36.279Z,0.87
2019-02-04T02:24:12.516Z,1.10
2019-02-04T02:24:48.736Z,1.20
2019-02-04T02:25:24.976Z,0.80
2019-02-04T02:26:01.227Z,1.37
2019-02-04T02:26:37.585Z,1.60
2019-02-04T02:27:13.839Z,1.07
2019-02-04T02:27:49.912Z,1.40
2019-02-04T02:28:26.073Z,1.07
2019-02-04T02:29:02.181Z,1.43
2019-02-04T02:29:38.788Z,1.07
2019-02-04T02:30:18.947Z,1.53
2019-02-04T02:30:55.271Z,1.70
2019-02-04T02:31:31.605Z,1.40
2019-02-04T02:32:07.911Z,2.10
2019-02-04T02:32:44.279Z,2.13
2019-02-04T02:33:20.323Z,1.30
2019-02-04T02:33:56.470Z,1.50
2019-02-04T02:34:32.758Z,1.70
2019-02-04T02:35:09.548Z,1.50
2019-02-04T02:35:45.744Z,2.00
2019-02-04T02:36:21.854Z,1.30
2019-02-04T02:36:58.041Z,1.40
2019-02-04T02:37:34.201Z,1.80
2019-02-04T02:38:10.428Z,1.53
2019-02-04T02:38:46.697Z,1.67
2019-02-04T02:39:22.771Z,2.00
2019-02-04T02:39:59.163Z,1.93
2019-02-04T02:40:36.216Z,1.10
2019-02-04T02:41:12.372Z,1.47
2019-02-04T02:41:48.484Z,1.10
2019-02-04T02:42:24.695Z,1.07
2019-02-04T02:43:00.912Z,1.00
2019-02-04T02:43:37.083Z,1.53
2019-02-04T02:44:13.298Z,1.03
2019-02-04T02:44:49.418Z,1.60
2019-02-04T02:45:25.493Z,1.00
2019-02-04T02:46:01.745Z,1.23
2019-02-04T02:46:37.860Z,1.07
2019-02-04T02:47:14.099Z,1.57
2019-02-04T02:47:50.307Z,1.27
2019-02-04T02:48:26.508Z,1.47
2019-02-04T02:49:02.794Z,1.13
2019-02-04T02:49:39.001Z,1.03
2019-02-04T02:50:15.380Z,1.17
2019-02-04T02:50:51.734Z,1.80
2019-02-04T02:51:28.255Z,1.10
2019-02-04T02:52:04.459Z,1.23
2019-02-04T02:52:40.594Z,1.27
2019-02-04T02:53:16.654Z,1.00
2019-02-04T02:53:52.839Z,1.27
2019-02-04T02:54:28.985Z,0.80
2019-02-04T02:55:05.294Z,1.10
2019-02-04T02:55:41.462Z,1.43
2019-02-04T02:56:17.696Z,1.47
2019-02-04T02:56:53.839Z,1.07
2019-02-04T02:57:29.972Z,1.60
2019-02-04T02:58:06.611Z,1.10
2019-02-04T02:58:42.897Z,1.10
2019-02-04T02:59:19.022Z,1.10
2019-02-04T02:59:55.109Z,1.67
2019-02-04T03:00:31.769Z,0.90
2019-02-04T03:01:07.860Z,1.40
2019-02-04T03:01:44.113Z,1.27
2019-02-04T03:02:20.263Z,1.60
2019-02-04T03:02:56.684Z,1.40
2019-02-04T03:03:32.795Z,1.00
2019-02-04T03:04:09.485Z,1.00
2019-02-04T03:04:45.744Z,1.40
2019-02-04T03:05:22.040Z,1.20
2019-02-04T03:05:58.423Z,1.30
2019-02-04T03:06:34.614Z,0.90
2019-02-04T03:07:10.778Z,1.20
2019-02-04T03:07:47.267Z,1.00
2019-02-04T03:08:23.530Z,1.70
2019-02-04T03:08:59.748Z,1.90
2019-02-04T03:09:35.768Z,1.67
2019-02-04T03:10:13.740Z,1.20
2019-02-04T03:10:49.873Z,1.30
2019-02-04T03:11:26.044Z,1.70
2019-02-04T03:12:02.465Z,1.70
2019-02-04T03:12:38.597Z,1.20
2019-02-04T03:13:14.987Z,1.67
2019-02-04T03:13:51.026Z,1.40
2019-02-04T03:14:27.289Z,1.83
2019-02-04T03:15:03.411Z,1.47
2019-02-04T03:15:39.583Z,1.27
2019-02-04T03:16:15.783Z,1.90
2019-02-04T03:16:52.109Z,1.63
2019-02-04T03:17:28.493Z,1.80
2019-02-04T03:18:04.654Z,1.57
2019-02-04T03:18:40.935Z,0.93
2019-02-04T03:19:17.157Z,1.50
2019-02-04T03:19:53.340Z,1.63
2019-02-04T03:20:29.481Z,1.70
2019-02-04T03:21:05.588Z,1.77
2019-02-04T03:21:41.863Z,1.70
2019-02-04T03:22:18.040Z,1.50
2019-02-04T03:22:54.335Z,1.77
2019-02-04T03:23:30.896Z,1.60
2019-02-04T03:24:06.927Z,1.97
2019-02-04T03:24:43.058Z,2.23
2019-02-04T03:25:19.374Z,1.93
2019-02-04T03:25:55.635Z,2.00
2019-02-04T03:26:31.834Z,1.63
2019-02-04T03:27:08.002Z,1.40
2019-02-04T03:27:44.338Z,2.53
2019-02-04T03:28:20.431Z,2.27
2019-02-04T03:28:56.566Z,2.60
2019-02-04T03:29:32.811Z,2.40
2019-02-04T03:30:12.736Z,2.40
2019-02-04T03:30:48.947Z,1.90
2019-02-04T03:31:25.034Z,2.17
2019-02-04T03:32:01.253Z,2.40
2019-02-04T03:32:37.352Z,1.90
2019-02-04T03:33:13.542Z,2.10
2019-02-04T03:33:50.176Z,1.70
2019-02-04T03:34:26.519Z,2.10
2019-02-04T03:35:02.782Z,2.00
2019-02-04T03:35:38.953Z,2.13
2019-02-04T03:36:15.172Z,1.87
2019-02-04T03:36:51.268Z,2.63
2019-02-04T03:37:27.400Z,2.10
2019-02-04T03:38:03.628Z,1.93
2019-02-04T03:38:39.801Z,2.10
2019-02-04T03:39:16.033Z,1.90
2019-02-04T03:39:52.399Z,1.93
2019-02-04T03:40:30.235Z,1.77
2019-02-04T03:41:06.331Z,2.00
2019-02-04T03:41:42.524Z,1.70
2019-02-04T03:42:18.724Z,2.87
2019-02-04T03:42:54.944Z,2.23
2019-02-04T03:43:31.233Z,2.33
2019-02-04T03:44:07.594Z,2.40
2019-02-04T03:44:43.656Z,2.10
2019-02-04T03:45:20.054Z,2.70
2019-02-04T03:45:56.071Z,2.17
2019-02-04T03:46:32.179Z,2.13
2019-02-04T03:47:08.790Z,2.47
2019-02-04T03:47:45.104Z,2.20
2019-02-04T03:48:21.225Z,1.90
2019-02-04T03:48:57.507Z,2.10
2019-02-04T03:49:33.546Z,2.40
2019-02-04T03:50:10.810Z,2.70
2019-02-04T03:50:47.081Z,2.57
2019-02-04T03:51:23.447Z,3.03
2019-02-04T03:51:59.576Z,2.50
2019-02-04T03:52:35.743Z,2.60
2019-02-04T03:53:11.997Z,3.03
2019-02-04T03:53:48.232Z,2.20
2019-02-04T03:54:24.876Z,3.60
2019-02-04T03:55:01.060Z,2.27
2019-02-04T03:55:37.156Z,2.57
2019-02-04T03:56:13.314Z,2.70
2019-02-04T03:56:49.400Z,2.57
2019-02-04T03:57:25.443Z,2.47
2019-02-04T03:58:01.581Z,2.80
2019-02-04T03:58:37.628Z,3.43
2019-02-04T03:59:14.197Z,3.13
2019-02-04T03:59:50.414Z,2.93
2019-02-04T04:00:31.437Z,4.00
2019-02-04T04:01:07.588Z,2.30
2019-02-04T04:01:43.892Z,2.40
2019-02-04T04:02:20.026Z,2.67
2019-02-04T04:02:56.177Z,2.77
2019-02-04T04:03:32.808Z,3.10
2019-02-04T04:04:08.918Z,2.67
2019-02-04T04:04:45.458Z,3.10
2019-02-04T04:05:21.641Z,2.63
2019-02-04T04:05:57.816Z,2.13
2019-02-04T04:06:34.036Z,3.07
2019-02-04T04:07:10.345Z,2.40
2019-02-04T04:07:46.517Z,2.73
2019-02-04T04:08:22.678Z,3.10
2019-02-04T04:08:59.052Z,2.67
2019-02-04T04:09:35.123Z,2.30
2019-02-04T04:10:11.862Z,2.77
2019-02-04T04:10:48.181Z,2.57
2019-02-04T04:11:24.447Z,2.37
2019-02-04T04:12:00.617Z,2.40
2019-02-04T04:12:36.918Z,2.77
2019-02-04T04:13:13.154Z,2.20
2019-02-04T04:13:49.801Z,3.00
2019-02-04T04:14:26.021Z,3.20
2019-02-04T04:15:02.506Z,2.53
2019-02-04T04:15:38.540Z,2.73
2019-02-04T04:16:14.707Z,2.53
2019-02-04T04:16:50.798Z,3.30
2019-02-04T04:17:27.020Z,2.70
2019-02-04T04:18:03.217Z,2.97
2019-02-04T04:18:39.331Z,2.97
2019-02-04T04:19:15.473Z,2.77
2019-02-04T04:19:51.803Z,2.70
2019-02-04T04:20:28.020Z,2.80
2019-02-04T04:21:04.228Z,3.10
2019-02-04T04:21:40.337Z,3.60
2019-02-04T04:22:16.542Z,2.20
2019-02-04T04:22:52.731Z,3.00
2019-02-04T04:23:28.928Z,2.67
2019-02-04T04:24:05.356Z,3.57
2019-02-04T04:24:41.663Z,2.93
2019-02-04T04:25:18.476Z,2.60
2019-02-04T04:25:54.714Z,2.63
2019-02-04T04:26:31.295Z,2.83
2019-02-04T04:27:07.556Z,3.07
2019-02-04T04:27:43.778Z,3.20
2019-02-04T04:28:20.178Z,2.73
2019-02-04T04:28:56.524Z,3.07
2019-02-04T04:29:32.720Z,3.10
2019-02-04T04:30:11.729Z,3.63
2019-02-04T04:30:47.947Z,2.70
2019-02-04T04:31:24.044Z,2.93
2019-02-04T04:32:00.180Z,2.90
2019-02-04T04:32:36.196Z,3.67
2019-02-04T04:33:12.457Z,2.77
2019-02-04T04:33:48.654Z,3.63
2019-02-04T04:34:24.925Z,2.87
2019-02-04T04:35:01.144Z,3.20
2019-02-04T04:35:37.667Z,3.50
2019-02-04T04:36:13.816Z,3.60
2019-02-04T04:36:50.241Z,3.33
2019-02-04T04:37:26.362Z,2.57
2019-02-04T04:38:02.549Z,3.20
2019-02-04T04:38:38.880Z,3.20
2019-02-04T04:39:15.028Z,3.30
2019-02-04T04:39:51.111Z,3.43
2019-02-04T04:40:27.081Z,3.03
2019-02-04T04:41:03.392Z,3.20
2019-02-04T04:41:39.590Z,2.60
2019-02-04T04:42:15.849Z,3.17
2019-02-04T04:42:52.285Z,3.00
2019-02-04T04:43:28.417Z,3.27
2019-02-04T04:44:04.872Z,3.60
2019-02-04T04:44:41.065Z,2.73
2019-02-04T04:45:19.459Z,2.83
2019-02-04T04:45:56.046Z,3.67
2019-02-04T04:46:32.290Z,3.30
2019-02-04T04:47:08.478Z,3.60
2019-02-04T04:47:44.699Z,2.73
2019-02-04T04:48:26.750Z,3.93
2019-02-04T04:48:58.870Z,3.67
2019-02-04T04:49:35.176Z,3.10
2019-02-04T04:50:11.543Z,2.83
2019-02-04T04:50:47.727Z,3.07
2019-02-04T04:51:23.972Z,2.70
2019-02-04T04:52:00.328Z,3.30
2019-02-04T04:52:36.503Z,2.50
2019-02-04T04:53:12.840Z,2.50
2019-02-04T04:53:49.028Z,3.10
2019-02-04T04:54:25.077Z,2.73
2019-02-04T04:55:01.457Z,2.63
2019-02-04T04:55:37.768Z,2.30
2019-02-04T04:56:14.394Z,2.20
2019-02-04T04:56:50.470Z,3.20
2019-02-04T04:57:26.863Z,2.67
2019-02-04T04:58:03.107Z,3.27
2019-02-04T04:58:40.764Z,2.80
2019-02-04T04:59:16.886Z,2.67
2019-02-04T04:59:52.974Z,3.07
2019-02-04T05:00:31.206Z,2.70
2019-02-04T05:01:07.297Z,2.63
2019-02-04T05:01:43.443Z,2.67
2019-02-04T05:02:19.759Z,2.23
2019-02-04T05:02:56.039Z,3.43
2019-02-04T05:03:32.189Z,2.70
2019-02-04T05:04:08.445Z,2.50
2019-02-04T05:04:44.799Z,3.13
2019-02-04T05:05:20.907Z,3.07
2019-02-04T05:05:57.239Z,2.47
2019-02-04T05:06:33.757Z,3.00
2019-02-04T05:07:10.032Z,2.57
2019-02-04T05:07:46.500Z,2.43
2019-02-04T05:08:22.611Z,3.07
2019-02-04T05:08:58.919Z,2.50
2019-02-04T05:09:35.294Z,2.57
2019-02-04T05:10:13.277Z,2.80
2019-02-04T05:10:49.441Z,2.33
2019-02-04T05:11:25.723Z,2.60
2019-02-04T05:12:01.838Z,3.20
2019-02-04T05:12:38.107Z,2.90
2019-02-04T05:13:14.281Z,2.60
2019-02-04T05:13:50.392Z,2.70
2019-02-04T05:14:26.518Z,2.47
2019-02-04T05:15:02.633Z,2.90
2019-02-04T05:15:38.796Z,2.30
2019-02-04T05:16:15.079Z,2.87
2019-02-04T05:16:51.496Z,3.00
2019-02-04T05:17:27.628Z,2.40
2019-02-04T05:18:04.057Z,3.73
2019-02-04T05:18:40.433Z,2.40
2019-02-04T05:19:16.588Z,2.93
2019-02-04T05:19:52.670Z,3.00
2019-02-04T05:20:28.946Z,2.10
2019-02-04T05:21:05.200Z,1.83
2019-02-04T05:21:41.308Z,2.70
2019-02-04T05:22:17.447Z,1.90
2019-02-04T05:22:53.658Z,2.97
2019-02-04T05:23:29.924Z,3.00
2019-02-04T05:24:06.162Z,2.50
2019-02-04T05:24:42.807Z,2.67
2019-02-04T05:25:19.219Z,2.20
2019-02-04T05:25:55.320Z,2.20
2019-02-04T05:26:34.355Z,2.73
2019-02-04T05:27:10.637Z,2.40
2019-02-04T05:27:46.951Z,2.67
2019-02-04T05:28:23.248Z,2.10
2019-02-04T05:28:59.332Z,2.60
2019-02-04T05:29:35.533Z,2.67
2019-02-04T05:30:13.902Z,2.77
2019-02-04T05:30:50.297Z,2.87
2019-02-04T05:31:26.611Z,2.70
2019-02-04T05:32:02.814Z,2.70
2019-02-04T05:32:38.995Z,2.77
2019-02-04T05:33:15.256Z,3.03
2019-02-04T05:33:51.465Z,2.80
2019-02-04T05:34:27.803Z,3.50
2019-02-04T05:35:03.905Z,2.30
2019-02-04T05:35:40.195Z,3.40
2019-02-04T05:36:16.357Z,2.80
2019-02-04T05:36:52.499Z,2.83
2019-02-04T05:37:29.076Z,2.50
2019-02-04T05:38:05.364Z,3.33
2019-02-04T05:38:41.547Z,3.13
2019-02-04T05:39:17.836Z,2.60
2019-02-04T05:39:54.108Z,2.50
2019-02-04T05:40:30.431Z,2.87
2019-02-04T05:41:06.655Z,2.70
2019-02-04T05:41:43.121Z,2.60
2019-02-04T05:42:19.392Z,2.63
2019-02-04T05:42:55.527Z,2.57
2019-02-04T05:43:31.701Z,2.00
2019-02-04T05:44:07.855Z,2.10
2019-02-04T05:44:43.958Z,1.60
2019-02-04T05:45:20.858Z,2.43
2019-02-04T05:45:57.199Z,2.50
2019-02-04T05:46:33.385Z,1.70
2019-02-04T05:47:09.666Z,2.37
2019-02-04T05:47:46.059Z,2.73
2019-02-04T05:48:22.427Z,3.40
2019-02-04T05:48:58.772Z,2.30
2019-02-04T05:49:34.893Z,2.30
2019-02-04T05:50:13.423Z,2.20
2019-02-04T05:50:49.542Z,2.23
2019-02-04T05:51:25.700Z,2.30
2019-02-04T05:52:01.939Z,2.23
2019-02-04T05:52:38.060Z,2.17
2019-02-04T05:53:14.321Z,1.87
2019-02-04T05:53:50.413Z,1.90
2019-02-04T05:54:26.760Z,1.90
2019-02-04T05:55:03.056Z,1.87
2019-02-04T05:55:39.163Z,2.40
2019-02-04T05:56:15.354Z,1.83
2019-02-04T05:56:51.452Z,2.33
2019-02-04T05:57:27.681Z,2.33
2019-02-04T05:58:04.180Z,2.03
2019-02-04T05:58:40.471Z,2.40
2019-02-04T05:59:16.823Z,2.03
2019-02-04T05:59:52.972Z,1.60
2019-02-04T06:00:54.616Z,2.50
2019-02-04T06:01:30.887Z,2.73
2019-02-04T06:02:09.428Z,2.30
2019-02-04T06:02:45.533Z,2.57
2019-02-04T06:03:21.801Z,2.80
2019-02-04T06:03:57.909Z,2.07
2019-02-04T06:04:34.107Z,2.00
2019-02-04T06:05:11.767Z,2.73
2019-02-04T06:05:47.891Z,3.00
2019-02-04T06:06:24.155Z,2.30
2019-02-04T06:07:00.429Z,2.10
2019-02-04T06:07:36.631Z,2.13
2019-02-04T06:08:12.976Z,2.60
2019-02-04T06:08:49.017Z,2.63
2019-02-04T06:09:25.231Z,2.50
2019-02-04T06:10:01.297Z,1.97
2019-02-04T06:10:37.519Z,2.40
2019-02-04T06:11:13.657Z,2.43
2019-02-04T06:11:50.113Z,3.17
2019-02-04T06:12:26.263Z,2.77
2019-02-04T06:13:02.678Z,2.53
2019-02-04T06:13:38.942Z,3.00
2019-02-04T06:14:15.207Z,3.77
2019-02-04T06:14:51.551Z,2.67
2019-02-04T06:15:27.784Z,3.30
2019-02-04T06:16:04.020Z,3.27
2019-02-04T06:16:40.127Z,2.50
2019-02-04T06:17:18.957Z,3.17
2019-02-04T06:17:55.325Z,2.60
2019-02-04T06:18:31.534Z,3.00
2019-02-04T06:19:07.656Z,2.70
2019-02-04T06:19:43.866Z,3.17
2019-02-04T06:20:22.048Z,3.17
2019-02-04T06:20:58.606Z,2.90
2019-02-04T06:21:34.840Z,3.17
2019-02-04T06:22:11.143Z,3.00
2019-02-04T06:22:47.343Z,2.40
2019-02-04T06:23:23.560Z,2.93
2019-02-04T06:23:59.731Z,2.30
2019-02-04T06:24:35.834Z,2.60
2019-02-04T06:25:12.153Z,2.83
2019-02-04T06:25:48.245Z,3.10
2019-02-04T06:26:24.492Z,2.40
2019-02-04T06:27:00.544Z,2.63
2019-02-04T06:27:36.827Z,2.60
2019-02-04T06:28:12.965Z,2.80
2019-02-04T06:28:49.248Z,3.00
2019-02-04T06:29:25.367Z,2.80
2019-02-04T06:30:01.538Z,2.97
2019-02-04T06:30:37.889Z,2.60
2019-02-04T06:31:13.978Z,2.77
2019-02-04T06:31:50.028Z,3.07
2019-02-04T06:32:26.666Z,2.80
2019-02-04T06:33:02.865Z,3.43
2019-02-04T06:33:39.354Z,3.43
2019-02-04T06:34:15.506Z,2.63
2019-02-04T06:34:51.729Z,2.60
2019-02-04T06:35:27.915Z,2.63
2019-02-04T06:36:04.113Z,2.80
2019-02-04T06:36:40.383Z,3.40
2019-02-04T06:37:16.498Z,2.87
2019-02-04T06:37:52.575Z,3.17
2019-02-04T06:38:28.841Z,2.90
2019-02-04T06:39:06.419Z,3.30
2019-02-04T06:39:42.535Z,2.93
2019-02-04T06:40:18.817Z,3.53
2019-02-04T06:40:54.880Z,3.27
2019-02-04T06:41:30.983Z,3.03
2019-02-04T06:42:07.216Z,3.90
2019-02-04T06:42:43.749Z,3.20
2019-02-04T06:43:19.827Z,3.30
2019-02-04T06:43:56.408Z,3.30
2019-02-04T06:44:32.569Z,4.00
2019-02-04T06:45:10.335Z,2.80
2019-02-04T06:45:46.641Z,3.53
2019-02-04T06:46:22.905Z,2.90
2019-02-04T06:46:59.034Z,3.43
2019-02-04T06:47:35.153Z,3.20
2019-02-04T06:48:11.411Z,2.83
2019-02-04T06:48:47.496Z,3.07
2019-02-04T06:49:23.683Z,3.13
2019-02-04T06:49:59.749Z,2.80
2019-02-04T06:50:35.885Z,2.80
2019-02-04T06:51:12.090Z,3.00
2019-02-04T06:51:48.241Z,3.27
2019-02-04T06:52:24.575Z,3.40
2019-02-04T06:53:00.699Z,3.57
2019-02-04T06:53:36.830Z,2.80
2019-02-04T06:54:13.232Z,3.70
2019-02-04T06:54:49.413Z,3.63
2019-02-04T06:55:28.604Z,2.20
2019-02-04T06:56:04.742Z,3.30
2019-02-04T06:56:41.008Z,2.50
2019-02-04T06:57:17.221Z,2.63
2019-02-04T06:57:53.390Z,2.97
2019-02-04T06:58:29.400Z,3.13
2019-02-04T06:59:05.934Z,3.77
2019-02-04T06:59:42.245Z,2.73
2019-02-04T07:00:18.885Z,2.27
2019-02-04T07:00:55.031Z,3.23
2019-02-04T07:01:31.169Z,2.20
2019-02-04T07:02:07.616Z,2.53
2019-02-04T07:02:43.903Z,2.30
2019-02-04T07:03:20.045Z,2.50
2019-02-04T07:03:56.341Z,3.10
2019-02-04T07:04:32.932Z,2.67
2019-02-04T07:05:09.227Z,2.60
2019-02-04T07:05:45.554Z,2.07
2019-02-04T07:06:21.656Z,2.80
2019-02-04T07:06:57.941Z,2.37
2019-02-04T07:07:34.035Z,2.60
2019-02-04T07:08:10.271Z,3.03
2019-02-04T07:08:46.594Z,2.77
2019-02-04T07:09:22.679Z,2.80
2019-02-04T07:09:58.909Z,3.03
2019-02-04T07:10:35.229Z,2.90
2019-02-04T07:11:11.359Z,3.80
2019-02-04T07:11:47.546Z,2.30
2019-02-04T07:12:23.854Z,3.30
2019-02-04T07:13:00.104Z,3.43
2019-02-04T07:13:36.186Z,4.03
2019-02-04T07:14:12.351Z,3.00
2019-02-04T07:14:48.358Z,3.50
2019-02-04T07:15:24.575Z,4.03
2019-02-04T07:16:00.885Z,3.37
2019-02-04T07:16:37.101Z,3.40
2019-02-04T07:17:13.795Z,2.80
2019-02-04T07:17:50.093Z,2.87
2019-02-04T07:18:26.200Z,3.20
2019-02-04T07:19:02.366Z,2.17
2019-02-04T07:19:38.536Z,2.07
2019-02-04T07:20:20.346Z,3.33
2019-02-04T07:20:56.544Z,2.67
2019-02-04T07:21:32.701Z,2.63
2019-02-04T07:22:09.406Z,3.00
2019-02-04T07:22:45.442Z,2.33
2019-02-04T07:23:21.674Z,2.37
2019-02-04T07:23:57.788Z,2.30
2019-02-04T07:24:42.506Z,2.63
2019-02-04T07:25:13.218Z,2.43
2019-02-04T07:25:49.284Z,1.93
2019-02-04T07:26:25.970Z,1.90
2019-02-04T07:27:02.103Z,2.00
2019-02-04T07:27:38.362Z,2.60
2019-02-04T07:28:14.559Z,2.07
2019-02-04T07:28:51.453Z,2.80
2019-02-04T07:29:27.638Z,2.43
2019-02-04T07:30:03.667Z,2.00
2019-02-04T07:30:39.880Z,2.43
2019-02-04T07:31:16.274Z,2.70
2019-02-04T07:31:52.423Z,2.13
2019-02-04T07:32:28.591Z,1.87
2019-02-04T07:33:04.932Z,2.70
2019-02-04T07:33:41.209Z,2.40
2019-02-04T07:34:17.242Z,1.60
2019-02-04T07:34:53.286Z,2.07
2019-02-04T07:35:29.548Z,2.50
2019-02-04T07:36:05.674Z,2.33
2019-02-04T07:36:41.801Z,2.23
2019-02-04T07:37:18.100Z,1.90
2019-02-04T07:37:54.516Z,2.70
2019-02-04T07:38:30.748Z,2.60
2019-02-04T07:39:08.995Z,1.80
2019-02-04T07:39:45.024Z,2.00
2019-02-04T07:40:23.400Z,1.90
2019-02-04T07:40:59.687Z,2.00
2019-02-04T07:41:35.828Z,2.73
2019-02-04T07:42:12.069Z,2.30
2019-02-04T07:42:48.524Z,1.97
2019-02-04T07:43:24.775Z,2.40
2019-02-04T07:44:00.982Z,2.20
2019-02-04T07:44:37.134Z,2.40
2019-02-04T07:45:13.457Z,2.17
2019-02-04T07:45:49.579Z,2.10
2019-02-04T07:46:25.679Z,2.00
2019-02-04T07:47:01.882Z,2.50
2019-02-04T07:47:38.159Z,2.30
2019-02-04T07:48:14.719Z,1.93
2019-02-04T07:48:50.768Z,1.83
2019-02-04T07:49:34.999Z,2.40
2019-02-04T07:50:05.083Z,2.50
2019-02-04T07:50:41.174Z,2.20
2019-02-04T07:51:17.524Z,2.70
2019-02-04T07:51:53.579Z,2.40
2019-02-04T07:52:29.697Z,3.00
2019-02-04T07:53:05.810Z,2.10
2019-02-04T07:53:42.154Z,2.37
2019-02-04T07:54:18.241Z,3.90
2019-02-04T07:54:54.349Z,2.10
2019-02-04T07:55:30.370Z,2.27
2019-02-04T07:56:06.617Z,1.70
2019-02-04T07:56:42.795Z,1.90
2019-02-04T07:57:18.881Z,3.17
2019-02-04T07:57:57.183Z,2.20
2019-02-04T07:58:32.855Z,2.43
2019-02-04T07:59:09.185Z,2.00
2019-02-04T07:59:45.369Z,2.30
2019-02-04T08:00:29.707Z,2.33
2019-02-04T08:01:06.018Z,2.57
2019-02-04T08:01:42.392Z,2.20
2019-02-04T08:02:18.591Z,2.40
2019-02-04T08:02:55.045Z,2.60
2019-02-04T08:03:31.153Z,2.73
2019-02-04T08:04:07.402Z,1.67
2019-02-04T08:04:43.634Z,2.03